Blackwater Airport


Codes: YBTR/BLT
Name: Blackwater Airport
City:
Country: Australia
Elevation: 657 ft.
Wikipedia:

Photos at Blackwater Airport


   Photos courtesy of SpottingLog. You can add your own sightings and photos by signing up for a free trial today.



No photos found.

Weather at Blackwater Airport


Time (UTC)DescriptionTempratureWindCloud coverageVisibilityPressureHumidity
13-Jun-2024 03:00Clear Sky20°C7 mph, SE0%10000m1018hPa33%
13-Jun-2024 06:00Clear Sky22°C4 mph, SE0%10000m1016hPa25%
13-Jun-2024 09:00Clear Sky15°C7 mph, SE0%10000m1018hPa32%
13-Jun-2024 12:00Clear Sky13°C4 mph, SE0%10000m1019hPa39%
13-Jun-2024 15:00Clear Sky12°C2 mph, NE0%10000m1019hPa42%
13-Jun-2024 18:00Clear Sky9°C2 mph, E0%10000m1018hPa51%
13-Jun-2024 21:00Clear Sky9°C2 mph, E0%10000m1020hPa51%
14-Jun-2024 00:00Clear Sky18°C2 mph, NE0%10000m1020hPa42%
14-Jun-2024 03:00Clear Sky22°C4 mph, N0%10000m1017hPa34%
14-Jun-2024 06:00Clear Sky23°C2 mph, W0%10000m1015hPa31%
14-Jun-2024 09:00Clear Sky15°C2 mph, S2%10000m1016hPa57%
14-Jun-2024 12:00Clear Sky14°C4 mph, SE1%10000m1016hPa54%
14-Jun-2024 15:00Clear Sky13°C4 mph, NE0%10000m1016hPa72%
14-Jun-2024 18:00Clear Sky11°C2 mph, NE0%10000m1016hPa82%
14-Jun-2024 21:00Clear Sky11°C4 mph, N0%10000m1017hPa88%
15-Jun-2024 00:00Clear Sky19°C4 mph, NW0%10000m1017hPa59%
15-Jun-2024 03:00Clear Sky24°C9 mph, W1%10000m1014hPa30%
15-Jun-2024 06:00Clear Sky25°C9 mph, SW0%10000m1012hPa20%
15-Jun-2024 09:00Clear Sky16°C2 mph, NW0%10000m1013hPa40%
15-Jun-2024 12:00Clear Sky15°C4 mph, SW0%10000m1014hPa35%
15-Jun-2024 15:00Clear Sky13°C7 mph, S0%10000m1015hPa39%
15-Jun-2024 18:00Clear Sky12°C7 mph, S0%10000m1015hPa45%
15-Jun-2024 21:00Clear Sky11°C4 mph, S0%10000m1017hPa47%
16-Jun-2024 00:00Clear Sky20°C4 mph, S0%10000m1018hPa29%
16-Jun-2024 03:00Clear Sky23°C9 mph, SW0%10000m1015hPa23%
16-Jun-2024 06:00Clear Sky23°C11 mph, SW0%10000m1014hPa23%
16-Jun-2024 09:00Clear Sky16°C4 mph, SE0%10000m1016hPa37%
16-Jun-2024 12:00Clear Sky14°C7 mph, SE0%10000m1017hPa37%
16-Jun-2024 15:00Clear Sky12°C4 mph, S0%10000m1017hPa49%
16-Jun-2024 18:00Clear Sky11°C7 mph, S0%10000m1018hPa59%
16-Jun-2024 21:00Clear Sky10°C4 mph, S0%10000m1020hPa64%
17-Jun-2024 00:00Clear Sky18°C7 mph, S0%10000m1020hPa40%
17-Jun-2024 03:00Clear Sky21°C9 mph, SW0%10000m1017hPa30%
17-Jun-2024 06:00Clear Sky21°C13 mph, S0%10000m1016hPa28%
17-Jun-2024 09:00Clear Sky14°C4 mph, S0%10000m1018hPa45%
17-Jun-2024 12:00Clear Sky13°C11 mph, S1%10000m1020hPa47%
17-Jun-2024 15:00Clear Sky11°C11 mph, SE4%10000m1020hPa54%
17-Jun-2024 18:00Clear Sky9°C9 mph, SE2%10000m1021hPa59%
17-Jun-2024 21:00Clear Sky8°C9 mph, S0%10000m1022hPa59%
18-Jun-2024 00:00Clear Sky16°C4 mph, SE0%10000m1021hPa27%